sensor_id;sensor_type;location;lat;lon;timestamp;P1;durP1;ratioP1;P2;durP2;ratioP2
63280;SDS011;49406;51.044;3.766;2023-08-21T00:01:35;3.20;;;2.00;;
63280;SDS011;49406;51.044;3.766;2023-08-21T00:04:10;7.60;;;2.50;;
63280;SDS011;49406;51.044;3.766;2023-08-21T00:06:44;2.50;;;1.50;;
63280;SDS011;49406;51.044;3.766;2023-08-21T00:09:19;2.20;;;1.30;;
63280;SDS011;49406;51.044;3.766;2023-08-21T00:11:53;2.10;;;1.40;;
63280;SDS011;49406;51.044;3.766;2023-08-21T00:14:28;1.80;;;0.90;;
63280;SDS011;49406;51.044;3.766;2023-08-21T00:17:03;12.30;;;2.70;;
63280;SDS011;49406;51.044;3.766;2023-08-21T00:19:38;8.60;;;1.80;;
63280;SDS011;49406;51.044;3.766;2023-08-21T00:22:12;5.60;;;2.00;;
63280;SDS011;49406;51.044;3.766;2023-08-21T00:24:47;3.40;;;1.60;;
63280;SDS011;49406;51.044;3.766;2023-08-21T00:27:21;11.50;;;1.50;;
63280;SDS011;49406;51.044;3.766;2023-08-21T00:29:57;8.40;;;0.90;;
63280;SDS011;49406;51.044;3.766;2023-08-21T00:32:33;3.90;;;1.30;;
63280;SDS011;49406;51.044;3.766;2023-08-21T00:35:08;2.40;;;1.30;;
63280;SDS011;49406;51.044;3.766;2023-08-21T00:37:42;2.40;;;1.50;;
63280;SDS011;49406;51.044;3.766;2023-08-21T00:40:18;1.50;;;0.90;;
63280;SDS011;49406;51.044;3.766;2023-08-21T00:42:53;5.50;;;1.80;;
63280;SDS011;49406;51.044;3.766;2023-08-21T00:45:27;7.50;;;1.70;;
63280;SDS011;49406;51.044;3.766;2023-08-21T00:48:03;10.50;;;2.00;;
63280;SDS011;49406;51.044;3.766;2023-08-21T00:50:38;3.20;;;1.10;;
63280;SDS011;49406;51.044;3.766;2023-08-21T00:53:13;1.80;;;1.10;;
63280;SDS011;49406;51.044;3.766;2023-08-21T00:55:48;3.10;;;1.60;;
63280;SDS011;49406;51.044;3.766;2023-08-21T00:58:22;6.20;;;2.00;;
63280;SDS011;49406;51.044;3.766;2023-08-21T01:00:57;6.80;;;1.60;;
63280;SDS011;49406;51.044;3.766;2023-08-21T01:03:32;8.50;;;1.50;;
63280;SDS011;49406;51.044;3.766;2023-08-21T01:06:06;1.80;;;1.10;;
63280;SDS011;49406;51.044;3.766;2023-08-21T01:08:42;4.70;;;1.70;;
63280;SDS011;49406;51.044;3.766;2023-08-21T01:11:24;7.40;;;2.20;;
63280;SDS011;49406;51.044;3.766;2023-08-21T01:14:06;3.10;;;1.50;;
63280;SDS011;49406;51.044;3.766;2023-08-21T01:16:48;4.90;;;2.00;;
63280;SDS011;49406;51.044;3.766;2023-08-21T01:19:26;2.90;;;1.20;;
63280;SDS011;49406;51.044;3.766;2023-08-21T01:22:08;1.80;;;0.90;;
63280;SDS011;49406;51.044;3.766;2023-08-21T01:24:43;1.70;;;0.90;;
63280;SDS011;49406;51.044;3.766;2023-08-21T01:27:18;2.70;;;1.50;;
63280;SDS011;49406;51.044;3.766;2023-08-21T01:29:53;2.40;;;1.30;;
63280;SDS011;49406;51.044;3.766;2023-08-21T01:32:29;3.40;;;1.70;;
63280;SDS011;49406;51.044;3.766;2023-08-21T01:35:11;3.90;;;1.70;;
63280;SDS011;49406;51.044;3.766;2023-08-21T01:37:46;3.90;;;1.30;;
63280;SDS011;49406;51.044;3.766;2023-08-21T01:40:22;2.90;;;0.90;;
63280;SDS011;49406;51.044;3.766;2023-08-21T01:42:57;5.00;;;1.40;;
63280;SDS011;49406;51.044;3.766;2023-08-21T01:45:32;2.20;;;1.30;;
63280;SDS011;49406;51.044;3.766;2023-08-21T01:48:07;1.80;;;0.90;;
63280;SDS011;49406;51.044;3.766;2023-08-21T01:50:41;3.60;;;1.40;;
63280;SDS011;49406;51.044;3.766;2023-08-21T01:53:16;1.40;;;0.60;;
63280;SDS011;49406;51.044;3.766;2023-08-21T01:55:51;2.00;;;1.40;;
63280;SDS011;49406;51.044;3.766;2023-08-21T01:58:26;1.90;;;1.20;;
63280;SDS011;49406;51.044;3.766;2023-08-21T02:01:00;1.60;;;1.10;;
63280;SDS011;49406;51.044;3.766;2023-08-21T02:03:36;2.20;;;0.90;;
63280;SDS011;49406;51.044;3.766;2023-08-21T02:06:12;2.10;;;1.30;;
63280;SDS011;49406;51.044;3.766;2023-08-21T02:08:46;2.90;;;1.30;;
63280;SDS011;49406;51.044;3.766;2023-08-21T02:11:21;4.00;;;1.40;;
63280;SDS011;49406;51.044;3.766;2023-08-21T02:13:56;2.40;;;1.40;;
63280;SDS011;49406;51.044;3.766;2023-08-21T02:16:30;2.10;;;1.20;;
63280;SDS011;49406;51.044;3.766;2023-08-21T02:19:05;2.30;;;1.50;;
63280;SDS011;49406;51.044;3.766;2023-08-21T02:21:40;3.70;;;1.50;;
63280;SDS011;49406;51.044;3.766;2023-08-21T02:24:14;2.50;;;1.70;;
63280;SDS011;49406;51.044;3.766;2023-08-21T02:26:49;2.40;;;1.40;;
63280;SDS011;49406;51.044;3.766;2023-08-21T02:29:23;7.70;;;2.10;;
63280;SDS011;49406;51.044;3.766;2023-08-21T02:31:58;1.90;;;0.90;;
63280;SDS011;49406;51.044;3.766;2023-08-21T02:34:33;10.30;;;1.20;;
63280;SDS011;49406;51.044;3.766;2023-08-21T02:37:07;5.30;;;1.10;;
63280;SDS011;49406;51.044;3.766;2023-08-21T02:39:42;2.70;;;2.10;;
63280;SDS011;49406;51.044;3.766;2023-08-21T02:42:16;3.70;;;1.70;;
63280;SDS011;49406;51.044;3.766;2023-08-21T02:44:51;9.30;;;1.40;;
63280;SDS011;49406;51.044;3.766;2023-08-21T02:47:26;4.90;;;1.20;;
63280;SDS011;49406;51.044;3.766;2023-08-21T02:50:00;3.80;;;1.10;;
63280;SDS011;49406;51.044;3.766;2023-08-21T02:52:35;2.60;;;1.20;;
63280;SDS011;49406;51.044;3.766;2023-08-21T02:55:10;10.50;;;1.50;;
63280;SDS011;49406;51.044;3.766;2023-08-21T02:57:45;8.10;;;1.70;;
63280;SDS011;49406;51.044;3.766;2023-08-21T03:00:20;3.50;;;1.20;;
63280;SDS011;49406;51.044;3.766;2023-08-21T03:02:54;2.80;;;0.90;;
63280;SDS011;49406;51.044;3.766;2023-08-21T03:05:29;4.20;;;1.80;;
63280;SDS011;49406;51.044;3.766;2023-08-21T03:08:04;6.80;;;1.40;;
63280;SDS011;49406;51.044;3.766;2023-08-21T03:10:39;6.90;;;2.00;;
63280;SDS011;49406;51.044;3.766;2023-08-21T03:13:13;4.30;;;1.70;;
63280;SDS011;49406;51.044;3.766;2023-08-21T03:15:48;4.90;;;2.40;;
63280;SDS011;49406;51.044;3.766;2023-08-21T03:18:23;2.90;;;2.30;;
63280;SDS011;49406;51.044;3.766;2023-08-21T03:20:57;5.80;;;2.70;;
63280;SDS011;49406;51.044;3.766;2023-08-21T03:23:32;4.10;;;1.60;;
63280;SDS011;49406;51.044;3.766;2023-08-21T03:26:06;7.80;;;3.00;;
63280;SDS011;49406;51.044;3.766;2023-08-21T03:28:41;2.50;;;1.70;;
63280;SDS011;49406;51.044;3.766;2023-08-21T03:31:16;6.00;;;3.00;;
63280;SDS011;49406;51.044;3.766;2023-08-21T03:33:50;5.20;;;2.10;;
63280;SDS011;49406;51.044;3.766;2023-08-21T03:36:25;3.70;;;1.50;;
63280;SDS011;49406;51.044;3.766;2023-08-21T03:39:03;5.40;;;2.80;;
63280;SDS011;49406;51.044;3.766;2023-08-21T03:41:38;5.80;;;3.40;;
63280;SDS011;49406;51.044;3.766;2023-08-21T03:44:12;6.20;;;2.00;;
63280;SDS011;49406;51.044;3.766;2023-08-21T03:46:47;3.40;;;2.10;;
63280;SDS011;49406;51.044;3.766;2023-08-21T03:51:54;9.40;;;3.40;;
63280;SDS011;49406;51.044;3.766;2023-08-21T03:54:29;4.90;;;3.90;;
63280;SDS011;49406;51.044;3.766;2023-08-21T03:57:04;4.90;;;3.10;;
63280;SDS011;49406;51.044;3.766;2023-08-21T03:59:38;6.20;;;2.70;;
63280;SDS011;49406;51.044;3.766;2023-08-21T04:02:13;10.70;;;2.40;;
63280;SDS011;49406;51.044;3.766;2023-08-21T04:04:48;4.50;;;1.90;;
63280;SDS011;49406;51.044;3.766;2023-08-21T04:07:22;10.40;;;1.60;;
63280;SDS011;49406;51.044;3.766;2023-08-21T04:09:57;2.50;;;1.60;;
63280;SDS011;49406;51.044;3.766;2023-08-21T04:12:31;5.20;;;2.40;;
63280;SDS011;49406;51.044;3.766;2023-08-21T04:15:07;6.40;;;3.00;;
63280;SDS011;49406;51.044;3.766;2023-08-21T04:17:42;5.90;;;2.20;;
63280;SDS011;49406;51.044;3.766;2023-08-21T04:20:17;2.60;;;2.10;;
63280;SDS011;49406;51.044;3.766;2023-08-21T04:22:53;4.10;;;1.50;;
63280;SDS011;49406;51.044;3.766;2023-08-21T04:25:27;3.00;;;2.20;;
63280;SDS011;49406;51.044;3.766;2023-08-21T04:28:02;6.60;;;2.10;;
63280;SDS011;49406;51.044;3.766;2023-08-21T04:30:39;16.10;;;1.70;;
63280;SDS011;49406;51.044;3.766;2023-08-21T04:33:14;3.50;;;2.60;;
63280;SDS011;49406;51.044;3.766;2023-08-21T04:35:48;3.30;;;2.00;;
63280;SDS011;49406;51.044;3.766;2023-08-21T04:38:23;3.20;;;2.40;;
63280;SDS011;49406;51.044;3.766;2023-08-21T04:41:06;11.60;;;2.30;;
63280;SDS011;49406;51.044;3.766;2023-08-21T04:43:41;7.30;;;2.60;;
63280;SDS011;49406;51.044;3.766;2023-08-21T04:46:15;6.70;;;2.20;;
63280;SDS011;49406;51.044;3.766;2023-08-21T04:48:51;4.90;;;2.00;;
63280;SDS011;49406;51.044;3.766;2023-08-21T04:51:26;5.60;;;2.10;;
63280;SDS011;49406;51.044;3.766;2023-08-21T04:54:00;8.90;;;3.20;;
63280;SDS011;49406;51.044;3.766;2023-08-21T04:56:35;6.20;;;3.30;;
63280;SDS011;49406;51.044;3.766;2023-08-21T04:59:10;8.80;;;2.70;;
63280;SDS011;49406;51.044;3.766;2023-08-21T05:04:17;7.60;;;2.10;;
63280;SDS011;49406;51.044;3.766;2023-08-21T05:06:52;12.30;;;2.40;;
63280;SDS011;49406;51.044;3.766;2023-08-21T05:09:26;6.70;;;1.80;;
63280;SDS011;49406;51.044;3.766;2023-08-21T05:12:01;4.30;;;2.10;;
63280;SDS011;49406;51.044;3.766;2023-08-21T05:14:38;3.80;;;2.40;;
63280;SDS011;49406;51.044;3.766;2023-08-21T05:17:12;3.00;;;2.10;;
63280;SDS011;49406;51.044;3.766;2023-08-21T05:19:47;5.30;;;1.40;;
63280;SDS011;49406;51.044;3.766;2023-08-21T05:22:21;3.50;;;2.10;;
63280;SDS011;49406;51.044;3.766;2023-08-21T05:24:56;5.00;;;2.70;;
63280;SDS011;49406;51.044;3.766;2023-08-21T05:27:31;3.20;;;1.70;;
63280;SDS011;49406;51.044;3.766;2023-08-21T05:30:07;2.60;;;1.30;;
63280;SDS011;49406;51.044;3.766;2023-08-21T05:32:43;8.00;;;2.10;;
63280;SDS011;49406;51.044;3.766;2023-08-21T05:37:51;5.60;;;3.10;;
63280;SDS011;49406;51.044;3.766;2023-08-21T05:40:26;9.10;;;4.00;;
63280;SDS011;49406;51.044;3.766;2023-08-21T05:43:00;12.70;;;3.60;;
63280;SDS011;49406;51.044;3.766;2023-08-21T05:45:35;3.00;;;2.40;;
63280;SDS011;49406;51.044;3.766;2023-08-21T05:48:10;18.50;;;3.30;;
63280;SDS011;49406;51.044;3.766;2023-08-21T05:50:44;12.10;;;3.70;;
63280;SDS011;49406;51.044;3.766;2023-08-21T05:53:22;6.90;;;3.30;;
63280;SDS011;49406;51.044;3.766;2023-08-21T05:55:57;9.50;;;3.50;;
63280;SDS011;49406;51.044;3.766;2023-08-21T05:58:32;3.60;;;2.10;;
63280;SDS011;49406;51.044;3.766;2023-08-21T06:01:06;3.00;;;2.10;;
63280;SDS011;49406;51.044;3.766;2023-08-21T06:03:41;5.10;;;1.90;;
63280;SDS011;49406;51.044;3.766;2023-08-21T06:06:16;5.60;;;3.70;;
63280;SDS011;49406;51.044;3.766;2023-08-21T06:08:50;11.40;;;3.00;;
63280;SDS011;49406;51.044;3.766;2023-08-21T06:11:25;6.70;;;2.90;;
63280;SDS011;49406;51.044;3.766;2023-08-21T06:13:59;4.00;;;2.00;;
63280;SDS011;49406;51.044;3.766;2023-08-21T06:16:34;3.50;;;1.50;;
63280;SDS011;49406;51.044;3.766;2023-08-21T06:19:08;7.30;;;3.80;;
63280;SDS011;49406;51.044;3.766;2023-08-21T06:21:43;8.80;;;2.20;;
63280;SDS011;49406;51.044;3.766;2023-08-21T06:24:18;13.90;;;4.30;;
63280;SDS011;49406;51.044;3.766;2023-08-21T06:26:53;4.60;;;3.90;;
63280;SDS011;49406;51.044;3.766;2023-08-21T06:29:27;6.70;;;3.60;;
63280;SDS011;49406;51.044;3.766;2023-08-21T06:32:02;14.30;;;4.20;;
63280;SDS011;49406;51.044;3.766;2023-08-21T06:39:44;1.40;;;0.70;;
63280;SDS011;49406;51.044;3.766;2023-08-21T06:42:18;1.80;;;1.30;;
63280;SDS011;49406;51.044;3.766;2023-08-21T06:44:53;5.50;;;3.50;;
63280;SDS011;49406;51.044;3.766;2023-08-21T06:47:27;2.80;;;1.90;;
63280;SDS011;49406;51.044;3.766;2023-08-21T06:50:02;10.90;;;3.50;;
63280;SDS011;49406;51.044;3.766;2023-08-21T06:52:37;11.90;;;4.30;;
63280;SDS011;49406;51.044;3.766;2023-08-21T06:55:12;6.50;;;3.00;;
63280;SDS011;49406;51.044;3.766;2023-08-21T06:57:47;7.30;;;1.50;;
63280;SDS011;49406;51.044;3.766;2023-08-21T07:00:21;5.60;;;4.00;;
63280;SDS011;49406;51.044;3.766;2023-08-21T07:02:56;15.20;;;4.90;;
63280;SDS011;49406;51.044;3.766;2023-08-21T07:05:30;2.10;;;1.20;;
63280;SDS011;49406;51.044;3.766;2023-08-21T07:08:05;7.60;;;4.00;;
63280;SDS011;49406;51.044;3.766;2023-08-21T07:10:40;5.90;;;3.00;;
63280;SDS011;49406;51.044;3.766;2023-08-21T07:13:14;7.50;;;3.70;;
63280;SDS011;49406;51.044;3.766;2023-08-21T07:15:49;11.20;;;3.60;;
63280;SDS011;49406;51.044;3.766;2023-08-21T07:18:27;5.60;;;2.70;;
63280;SDS011;49406;51.044;3.766;2023-08-21T07:21:02;5.80;;;3.00;;
63280;SDS011;49406;51.044;3.766;2023-08-21T07:23:37;7.40;;;4.90;;
63280;SDS011;49406;51.044;3.766;2023-08-21T07:26:12;4.00;;;3.70;;
63280;SDS011;49406;51.044;3.766;2023-08-21T07:28:46;3.70;;;2.50;;
63280;SDS011;49406;51.044;3.766;2023-08-21T07:31:21;6.10;;;4.00;;
63280;SDS011;49406;51.044;3.766;2023-08-21T07:33:56;4.80;;;2.70;;
63280;SDS011;49406;51.044;3.766;2023-08-21T07:36:32;5.50;;;2.80;;
63280;SDS011;49406;51.044;3.766;2023-08-21T07:39:07;9.00;;;4.10;;
63280;SDS011;49406;51.044;3.766;2023-08-21T07:41:41;11.50;;;2.90;;
63280;SDS011;49406;51.044;3.766;2023-08-21T07:44:16;2.60;;;1.90;;
63280;SDS011;49406;51.044;3.766;2023-08-21T07:46:51;11.00;;;2.40;;
63280;SDS011;49406;51.044;3.766;2023-08-21T07:49:25;6.40;;;2.70;;
63280;SDS011;49406;51.044;3.766;2023-08-21T07:52:00;6.60;;;4.70;;
63280;SDS011;49406;51.044;3.766;2023-08-21T07:54:35;4.00;;;3.60;;
63280;SDS011;49406;51.044;3.766;2023-08-21T07:57:09;10.20;;;3.60;;
63280;SDS011;49406;51.044;3.766;2023-08-21T07:59:44;4.40;;;3.40;;
63280;SDS011;49406;51.044;3.766;2023-08-21T08:02:19;9.40;;;5.00;;
63280;SDS011;49406;51.044;3.766;2023-08-21T08:04:54;6.90;;;3.80;;
63280;SDS011;49406;51.044;3.766;2023-08-21T08:07:28;5.90;;;3.10;;
63280;SDS011;49406;51.044;3.766;2023-08-21T08:10:03;6.40;;;3.80;;
63280;SDS011;49406;51.044;3.766;2023-08-21T08:12:40;7.10;;;5.00;;
63280;SDS011;49406;51.044;3.766;2023-08-21T08:15:15;5.80;;;3.90;;
63280;SDS011;49406;51.044;3.766;2023-08-21T08:17:50;10.80;;;6.60;;
63280;SDS011;49406;51.044;3.766;2023-08-21T08:20:26;8.70;;;4.50;;
63280;SDS011;49406;51.044;3.766;2023-08-21T08:23:01;9.70;;;5.10;;
63280;SDS011;49406;51.044;3.766;2023-08-21T08:25:36;6.70;;;3.40;;
63280;SDS011;49406;51.044;3.766;2023-08-21T08:28:11;7.30;;;4.50;;
63280;SDS011;49406;51.044;3.766;2023-08-21T08:30:46;13.60;;;3.80;;
63280;SDS011;49406;51.044;3.766;2023-08-21T08:33:20;7.10;;;4.70;;
63280;SDS011;49406;51.044;3.766;2023-08-21T08:35:55;14.90;;;5.00;;
63280;SDS011;49406;51.044;3.766;2023-08-21T08:38:29;7.50;;;4.50;;
63280;SDS011;49406;51.044;3.766;2023-08-21T08:41:05;5.40;;;2.70;;
63280;SDS011;49406;51.044;3.766;2023-08-21T08:43:44;8.60;;;3.60;;
63280;SDS011;49406;51.044;3.766;2023-08-21T08:48:53;14.10;;;4.60;;
63280;SDS011;49406;51.044;3.766;2023-08-21T08:51:29;6.00;;;3.80;;
63280;SDS011;49406;51.044;3.766;2023-08-21T08:54:08;12.20;;;4.50;;
63280;SDS011;49406;51.044;3.766;2023-08-21T08:56:44;6.30;;;4.70;;
63280;SDS011;49406;51.044;3.766;2023-08-21T08:59:19;6.60;;;4.70;;
63280;SDS011;49406;51.044;3.766;2023-08-21T09:01:53;7.10;;;2.40;;
63280;SDS011;49406;51.044;3.766;2023-08-21T09:04:28;9.70;;;5.10;;
63280;SDS011;49406;51.044;3.766;2023-08-21T09:07:08;6.70;;;2.90;;
63280;SDS011;49406;51.044;3.766;2023-08-21T09:09:46;14.50;;;3.30;;
63280;SDS011;49406;51.044;3.766;2023-08-21T09:12:24;4.90;;;2.50;;
63280;SDS011;49406;51.044;3.766;2023-08-21T09:14:59;6.60;;;4.40;;
63280;SDS011;49406;51.044;3.766;2023-08-21T09:17:39;7.40;;;4.30;;
63280;SDS011;49406;51.044;3.766;2023-08-21T09:20:14;5.00;;;3.40;;
63280;SDS011;49406;51.044;3.766;2023-08-21T09:22:53;2.30;;;1.80;;
63280;SDS011;49406;51.044;3.766;2023-08-21T09:25:28;4.20;;;3.00;;
63280;SDS011;49406;51.044;3.766;2023-08-21T09:28:08;5.80;;;4.00;;
63280;SDS011;49406;51.044;3.766;2023-08-21T09:30:50;11.80;;;3.10;;
63280;SDS011;49406;51.044;3.766;2023-08-21T09:33:25;3.80;;;2.50;;
63280;SDS011;49406;51.044;3.766;2023-08-21T09:36:00;4.70;;;3.30;;
63280;SDS011;49406;51.044;3.766;2023-08-21T09:38:36;6.00;;;4.30;;
63280;SDS011;49406;51.044;3.766;2023-08-21T09:41:13;3.80;;;2.50;;
63280;SDS011;49406;51.044;3.766;2023-08-21T09:43:51;4.20;;;2.80;;
63280;SDS011;49406;51.044;3.766;2023-08-21T09:46:31;6.90;;;3.10;;
63280;SDS011;49406;51.044;3.766;2023-08-21T09:49:06;5.60;;;3.70;;
63280;SDS011;49406;51.044;3.766;2023-08-21T09:51:40;3.30;;;2.70;;
63280;SDS011;49406;51.044;3.766;2023-08-21T09:54:16;3.60;;;2.10;;
63280;SDS011;49406;51.044;3.766;2023-08-21T09:56:51;7.60;;;3.10;;
63280;SDS011;49406;51.044;3.766;2023-08-21T09:59:25;5.70;;;4.30;;
63280;SDS011;49406;51.044;3.766;2023-08-21T10:02:00;6.50;;;3.90;;
63280;SDS011;49406;51.044;3.766;2023-08-21T10:04:37;5.80;;;3.20;;
63280;SDS011;49406;51.044;3.766;2023-08-21T10:09:53;6.90;;;4.10;;
63280;SDS011;49406;51.044;3.766;2023-08-21T10:12:28;2.00;;;1.30;;
63280;SDS011;49406;51.044;3.766;2023-08-21T10:17:41;2.30;;;2.00;;
63280;SDS011;49406;51.044;3.766;2023-08-21T10:20:20;4.70;;;2.80;;
63280;SDS011;49406;51.044;3.766;2023-08-21T10:23:00;2.40;;;1.70;;
63280;SDS011;49406;51.044;3.766;2023-08-21T10:25:40;5.70;;;2.00;;
63280;SDS011;49406;51.044;3.766;2023-08-21T10:28:15;4.10;;;2.00;;
63280;SDS011;49406;51.044;3.766;2023-08-21T10:30:50;5.30;;;3.10;;
63280;SDS011;49406;51.044;3.766;2023-08-21T10:39:15;2.40;;;1.40;;
63280;SDS011;49406;51.044;3.766;2023-08-21T10:41:54;3.90;;;1.50;;
63280;SDS011;49406;51.044;3.766;2023-08-21T10:44:36;3.20;;;1.50;;
63280;SDS011;49406;51.044;3.766;2023-08-21T10:47:21;2.20;;;1.30;;
63280;SDS011;49406;51.044;3.766;2023-08-21T10:50:03;2.10;;;1.20;;
63280;SDS011;49406;51.044;3.766;2023-08-21T10:52:40;4.10;;;2.00;;
63280;SDS011;49406;51.044;3.766;2023-08-21T10:55:16;1.10;;;0.70;;
63280;SDS011;49406;51.044;3.766;2023-08-21T10:57:51;3.80;;;1.20;;
63280;SDS011;49406;51.044;3.766;2023-08-21T11:00:26;4.80;;;2.10;;
63280;SDS011;49406;51.044;3.766;2023-08-21T11:03:00;3.10;;;1.70;;
63280;SDS011;49406;51.044;3.766;2023-08-21T11:05:35;4.70;;;2.80;;
63280;SDS011;49406;51.044;3.766;2023-08-21T11:08:10;3.60;;;1.50;;
63280;SDS011;49406;51.044;3.766;2023-08-21T11:10:46;2.50;;;1.60;;
63280;SDS011;49406;51.044;3.766;2023-08-21T11:13:22;2.00;;;1.30;;
63280;SDS011;49406;51.044;3.766;2023-08-21T11:16:00;2.70;;;1.20;;
63280;SDS011;49406;51.044;3.766;2023-08-21T11:18:37;5.00;;;1.30;;
63280;SDS011;49406;51.044;3.766;2023-08-21T11:21:12;5.20;;;1.00;;
63280;SDS011;49406;51.044;3.766;2023-08-21T11:23:46;2.40;;;1.70;;
63280;SDS011;49406;51.044;3.766;2023-08-21T11:26:21;4.30;;;1.50;;
63280;SDS011;49406;51.044;3.766;2023-08-21T11:31:32;2.10;;;1.00;;
63280;SDS011;49406;51.044;3.766;2023-08-21T11:34:07;1.10;;;0.60;;
63280;SDS011;49406;51.044;3.766;2023-08-21T11:36:42;1.20;;;0.60;;
63280;SDS011;49406;51.044;3.766;2023-08-21T11:39:16;2.10;;;0.90;;
63280;SDS011;49406;51.044;3.766;2023-08-21T11:41:54;6.50;;;1.80;;
63280;SDS011;49406;51.044;3.766;2023-08-21T11:44:30;4.50;;;0.70;;
63280;SDS011;49406;51.044;3.766;2023-08-21T11:47:04;1.20;;;0.70;;
63280;SDS011;49406;51.044;3.766;2023-08-21T11:49:40;1.50;;;1.00;;
63280;SDS011;49406;51.044;3.766;2023-08-21T11:52:17;2.70;;;1.10;;
63280;SDS011;49406;51.044;3.766;2023-08-21T11:54:53;2.30;;;1.40;;
63280;SDS011;49406;51.044;3.766;2023-08-21T11:57:28;1.40;;;0.70;;
63280;SDS011;49406;51.044;3.766;2023-08-21T12:00:03;1.50;;;1.30;;
63280;SDS011;49406;51.044;3.766;2023-08-21T12:02:42;1.80;;;1.10;;
63280;SDS011;49406;51.044;3.766;2023-08-21T12:05:26;1.90;;;1.30;;
63280;SDS011;49406;51.044;3.766;2023-08-21T12:08:01;1.50;;;1.00;;
63280;SDS011;49406;51.044;3.766;2023-08-21T12:10:36;1.50;;;1.00;;
63280;SDS011;49406;51.044;3.766;2023-08-21T12:13:11;2.50;;;0.80;;
63280;SDS011;49406;51.044;3.766;2023-08-21T12:15:45;1.10;;;0.50;;
63280;SDS011;49406;51.044;3.766;2023-08-21T12:18:20;3.60;;;0.80;;
63280;SDS011;49406;51.044;3.766;2023-08-21T12:20:54;3.60;;;0.80;;
63280;SDS011;49406;51.044;3.766;2023-08-21T12:23:29;1.60;;;0.80;;
63280;SDS011;49406;51.044;3.766;2023-08-21T12:26:04;1.30;;;0.80;;
63280;SDS011;49406;51.044;3.766;2023-08-21T12:28:38;1.90;;;0.90;;
63280;SDS011;49406;51.044;3.766;2023-08-21T12:31:13;1.40;;;0.50;;
63280;SDS011;49406;51.044;3.766;2023-08-21T12:33:48;3.10;;;1.50;;
63280;SDS011;49406;51.044;3.766;2023-08-21T12:36:22;2.50;;;1.70;;
63280;SDS011;49406;51.044;3.766;2023-08-21T12:38:57;1.20;;;0.80;;
63280;SDS011;49406;51.044;3.766;2023-08-21T12:41:31;1.40;;;0.90;;
63280;SDS011;49406;51.044;3.766;2023-08-21T12:44:06;2.40;;;1.90;;
63280;SDS011;49406;51.044;3.766;2023-08-21T12:46:41;3.70;;;1.70;;
63280;SDS011;49406;51.044;3.766;2023-08-21T12:49:16;9.20;;;0.90;;
63280;SDS011;49406;51.044;3.766;2023-08-21T12:51:50;1.90;;;1.00;;
63280;SDS011;49406;51.044;3.766;2023-08-21T12:54:26;2.10;;;1.10;;
63280;SDS011;49406;51.044;3.766;2023-08-21T12:57:01;1.10;;;0.60;;
63280;SDS011;49406;51.044;3.766;2023-08-21T12:59:36;1.80;;;0.90;;
63280;SDS011;49406;51.044;3.766;2023-08-21T13:02:11;2.00;;;1.10;;
63280;SDS011;49406;51.044;3.766;2023-08-21T13:04:46;2.10;;;1.30;;
63280;SDS011;49406;51.044;3.766;2023-08-21T13:07:20;2.70;;;1.50;;
63280;SDS011;49406;51.044;3.766;2023-08-21T13:09:55;2.20;;;1.20;;
63280;SDS011;49406;51.044;3.766;2023-08-21T13:12:31;2.80;;;0.70;;
63280;SDS011;49406;51.044;3.766;2023-08-21T13:15:06;4.30;;;1.40;;
63280;SDS011;49406;51.044;3.766;2023-08-21T13:17:41;5.20;;;1.10;;
63280;SDS011;49406;51.044;3.766;2023-08-21T13:20:15;1.70;;;1.10;;
63280;SDS011;49406;51.044;3.766;2023-08-21T13:22:51;2.30;;;1.50;;
63280;SDS011;49406;51.044;3.766;2023-08-21T13:25:26;5.70;;;1.20;;
63280;SDS011;49406;51.044;3.766;2023-08-21T13:28:01;2.60;;;1.40;;
63280;SDS011;49406;51.044;3.766;2023-08-21T13:30:36;1.50;;;0.90;;
63280;SDS011;49406;51.044;3.766;2023-08-21T13:33:11;2.30;;;0.80;;
63280;SDS011;49406;51.044;3.766;2023-08-21T13:35:46;2.00;;;1.00;;
63280;SDS011;49406;51.044;3.766;2023-08-21T13:38:21;1.40;;;0.90;;
63280;SDS011;49406;51.044;3.766;2023-08-21T13:40:56;3.40;;;1.70;;
63280;SDS011;49406;51.044;3.766;2023-08-21T13:43:30;5.10;;;1.70;;
63280;SDS011;49406;51.044;3.766;2023-08-21T13:46:05;2.00;;;1.10;;
63280;SDS011;49406;51.044;3.766;2023-08-21T13:48:40;2.80;;;0.80;;
63280;SDS011;49406;51.044;3.766;2023-08-21T13:51:14;1.40;;;0.70;;
63280;SDS011;49406;51.044;3.766;2023-08-21T13:53:49;1.60;;;1.20;;
63280;SDS011;49406;51.044;3.766;2023-08-21T13:56:24;2.00;;;1.30;;
63280;SDS011;49406;51.044;3.766;2023-08-21T13:58:58;1.70;;;1.10;;
63280;SDS011;49406;51.044;3.766;2023-08-21T14:01:34;1.60;;;0.90;;
63280;SDS011;49406;51.044;3.766;2023-08-21T14:04:08;3.90;;;1.30;;
63280;SDS011;49406;51.044;3.766;2023-08-21T14:06:43;2.10;;;1.40;;
63280;SDS011;49406;51.044;3.766;2023-08-21T14:09:17;2.00;;;1.10;;
63280;SDS011;49406;51.044;3.766;2023-08-21T14:11:52;1.60;;;1.20;;
63280;SDS011;49406;51.044;3.766;2023-08-21T14:14:26;2.50;;;1.00;;
63280;SDS011;49406;51.044;3.766;2023-08-21T14:19:35;1.70;;;1.40;;
63280;SDS011;49406;51.044;3.766;2023-08-21T14:22:09;3.30;;;1.20;;
63280;SDS011;49406;51.044;3.766;2023-08-21T14:24:44;1.70;;;1.20;;
63280;SDS011;49406;51.044;3.766;2023-08-21T14:27:19;1.60;;;0.90;;
63280;SDS011;49406;51.044;3.766;2023-08-21T14:29:53;1.90;;;1.10;;
63280;SDS011;49406;51.044;3.766;2023-08-21T14:32:28;1.60;;;0.80;;
63280;SDS011;49406;51.044;3.766;2023-08-21T14:35:02;2.20;;;1.20;;
63280;SDS011;49406;51.044;3.766;2023-08-21T14:37:38;11.30;;;1.30;;
63280;SDS011;49406;51.044;3.766;2023-08-21T14:40:13;1.90;;;1.30;;
63280;SDS011;49406;51.044;3.766;2023-08-21T14:42:48;1.60;;;1.10;;
63280;SDS011;49406;51.044;3.766;2023-08-21T14:45:22;2.10;;;0.60;;
63280;SDS011;49406;51.044;3.766;2023-08-21T14:47:57;1.30;;;0.90;;
63280;SDS011;49406;51.044;3.766;2023-08-21T14:50:31;1.60;;;1.20;;
63280;SDS011;49406;51.044;3.766;2023-08-21T14:53:06;2.70;;;1.00;;
63280;SDS011;49406;51.044;3.766;2023-08-21T14:55:40;2.10;;;1.60;;
63280;SDS011;49406;51.044;3.766;2023-08-21T14:58:15;1.70;;;1.40;;
63280;SDS011;49406;51.044;3.766;2023-08-21T15:00:49;1.90;;;0.90;;
63280;SDS011;49406;51.044;3.766;2023-08-21T15:03:26;2.80;;;1.00;;
63280;SDS011;49406;51.044;3.766;2023-08-21T15:06:01;4.00;;;1.00;;
63280;SDS011;49406;51.044;3.766;2023-08-21T15:08:37;1.40;;;1.20;;
63280;SDS011;49406;51.044;3.766;2023-08-21T15:11:13;1.90;;;1.60;;
63280;SDS011;49406;51.044;3.766;2023-08-21T15:13:47;1.20;;;0.80;;
63280;SDS011;49406;51.044;3.766;2023-08-21T15:16:22;1.30;;;1.00;;
63280;SDS011;49406;51.044;3.766;2023-08-21T15:25:22;1.60;;;1.30;;
63280;SDS011;49406;51.044;3.766;2023-08-21T15:27:57;2.70;;;1.20;;
63280;SDS011;49406;51.044;3.766;2023-08-21T15:30:31;1.60;;;1.00;;
63280;SDS011;49406;51.044;3.766;2023-08-21T15:33:06;2.30;;;0.70;;
63280;SDS011;49406;51.044;3.766;2023-08-21T15:35:41;1.70;;;1.30;;
63280;SDS011;49406;51.044;3.766;2023-08-21T15:38:15;2.20;;;1.20;;
63280;SDS011;49406;51.044;3.766;2023-08-21T15:40:50;7.60;;;1.30;;
63280;SDS011;49406;51.044;3.766;2023-08-21T15:43:24;5.20;;;1.00;;
63280;SDS011;49406;51.044;3.766;2023-08-21T15:45:59;1.90;;;1.30;;
63280;SDS011;49406;51.044;3.766;2023-08-21T15:48:37;1.90;;;1.20;;
63280;SDS011;49406;51.044;3.766;2023-08-21T15:51:11;4.60;;;1.80;;
63280;SDS011;49406;51.044;3.766;2023-08-21T15:53:46;2.40;;;1.10;;
63280;SDS011;49406;51.044;3.766;2023-08-21T15:56:21;5.90;;;1.90;;
63280;SDS011;49406;51.044;3.766;2023-08-21T15:58:55;4.00;;;1.30;;
63280;SDS011;49406;51.044;3.766;2023-08-21T16:01:30;2.90;;;1.50;;
63280;SDS011;49406;51.044;3.766;2023-08-21T16:04:05;5.90;;;2.30;;
63280;SDS011;49406;51.044;3.766;2023-08-21T16:06:39;6.60;;;2.70;;
63280;SDS011;49406;51.044;3.766;2023-08-21T16:09:14;1.70;;;1.30;;
63280;SDS011;49406;51.044;3.766;2023-08-21T16:11:49;3.40;;;1.10;;